Wicomico Church, Virginia
Current Conditions -  °F | °C
As of 6:15 PM on Friday 19 Dec 2014 (Local Time) from KW75 Reporting Station
Clear Clear  
Wind Chill: 30°   Ceiling: Unl
Heat Index: 36°   Visibility: 10mi
Dew Point: 26°   Wind: 8mph
Humidity: 66%   Direction: 360°N
Pressure: 30.19"   Gusts: NA
Location:  37.82°N, 76.38°W
Report Text: KW75 192315Z AUTO 36007KT 10SM CLR 02/M03 A3019 RMK AO1 T00231035
Loading
Personal Weather Stations






























Interactive Weather Map New forecast layout! Learn more

10-Day Weather Forecast

Advertisements
Track Severe Weather on mobile